PWSweather.com
Personal Weather Stations
Station Observations
FM1HN
Gros MorneMQ 97213

Gros MorneMQ 97213

Lat: 14.7107851, Lon: -61.003055399999994

Elevation: 0

Station Type:

Latest ConditionsUpdated 8:00:03 AM GMT-04:56 Sunday, Oct 22, 2017
Currently Today's Max Today's Min Today's Average
Temperature 84.4°F29.1°C 84.4°F29.1°C 79.3°F26.3°C 80.3°F26.8°C
Dew Point 71.3°F21.8°C 75.3°F24.1°C 71.3°F21.8°C 74.0°F23.3°C
Winds 2.3 mph ESE3.7 kmh ESE 4.6 mph ENE7.4 kmh ENE - 1.3 mph 2.1 kmh
Wind Gusts 4.6 mph7.4 kmh 10.4 mph16.7 kmh - -
Humidity 65% 87% 65% 81%
Pressure 30.00 in1015.9 mb 30.00 in1015.9 mb 29.92 in1013.2 mb -
Hour Temp Dew Point Humidity Winds Wind Gusts Pressure Precip Precip Rate Daily Precip Total
08:00 AM 84.4°F29.1°C 71.3°F21.8°C 65% 2.3 mph ESE3.7 kmh ESE 4.6 mph7.4 kmh 30.00 in1015.9 mb - 0.00 in0.0 mm 0.00 in0.0 mm
07:55 AM 84.0°F28.9°C 71.4°F21.9°C 66% 4.6 mph ENE7.4 kmh ENE 6.9 mph11.1 kmh 30.00 in1015.9 mb - 0.00 in0.0 mm 0.00 in0.0 mm
07:50 AM 83.6°F28.7°C 72.4°F22.4°C 69% 1.2 mph E1.9 kmh E 2.3 mph3.7 kmh 30.00 in1015.9 mb - 0.00 in0.0 mm 0.00 in0.0 mm
07:45 AM 83.3°F28.5°C 72.9°F22.7°C 71% 2.3 mph NE3.7 kmh NE 4.6 mph7.4 kmh 30.00 in1015.9 mb - 0.00 in0.0 mm 0.00 in0.0 mm
07:40 AM 83.1°F28.4°C 72.3°F22.4°C 70% 3.5 mph ENE5.6 kmh ENE 4.6 mph7.4 kmh 30.00 in1015.9 mb - 0.00 in0.0 mm 0.00 in0.0 mm
07:35 AM 82.6°F28.1°C 72.6°F22.6°C 72% 1.2 mph E1.9 kmh E 4.6 mph7.4 kmh 29.99 in1015.6 mb - 0.00 in0.0 mm 0.00 in0.0 mm
07:30 AM 82.4°F28.0°C 72.5°F22.5°C 72% 1.2 mph SE1.9 kmh SE 2.3 mph3.7 kmh 29.99 in1015.6 mb - 0.00 in0.0 mm 0.00 in0.0 mm
07:25 AM 82.2°F27.9°C 71.9°F22.2°C 71% 1.2 mph ENE1.9 kmh ENE 4.6 mph7.4 kmh 29.99 in1015.6 mb - 0.00 in0.0 mm 0.00 in0.0 mm
07:20 AM 81.9°F27.7°C 72.4°F22.4°C 73% 3.5 mph ENE5.6 kmh ENE 6.9 mph11.1 kmh 29.99 in1015.6 mb - 0.00 in0.0 mm 0.00 in0.0 mm
07:15 AM 81.7°F27.6°C 73.0°F22.8°C 75% Calm Calm 2.3 mph3.7 kmh 29.99 in1015.6 mb - 0.00 in0.0 mm 0.00 in0.0 mm
07:10 AM 80.4°F26.9°C 73.3°F22.9°C 79% 3.5 mph ENE5.6 kmh ENE 4.6 mph7.4 kmh 29.98 in1015.2 mb - 0.00 in0.0 mm 0.00 in0.0 mm
07:00 AM 80.4°F26.9°C 73.3°F22.9°C 79% 3.5 mph ENE5.6 kmh ENE 4.6 mph7.4 kmh 29.98 in1015.2 mb - 0.00 in0.0 mm 0.00 in0.0 mm
06:55 AM 80.4°F26.9°C 73.3°F22.9°C 79% 3.5 mph ENE5.6 kmh ENE 4.6 mph7.4 kmh 29.98 in1015.2 mb - 0.00 in0.0 mm 0.00 in0.0 mm
06:50 AM 80.4°F26.9°C 73.3°F22.9°C 79% 3.5 mph ENE5.6 kmh ENE 4.6 mph7.4 kmh 29.98 in1015.2 mb - 0.00 in0.0 mm 0.00 in0.0 mm
06:45 AM 80.4°F26.9°C 73.3°F22.9°C 79% 3.5 mph ENE5.6 kmh ENE 4.6 mph7.4 kmh 29.98 in1015.2 mb - 0.00 in0.0 mm 0.00 in0.0 mm
06:40 AM 80.2°F26.8°C 73.1°F22.8°C 79% 4.6 mph ENE7.4 kmh ENE 10.4 mph16.7 kmh 29.98 in1015.2 mb - 0.00 in0.0 mm 0.00 in0.0 mm
06:35 AM 80.1°F26.7°C 73.7°F23.2°C 81% 1.2 mph ENE1.9 kmh ENE 4.6 mph7.4 kmh 29.97 in1014.9 mb - 0.00 in0.0 mm 0.00 in0.0 mm
06:30 AM 80.0°F26.7°C 73.6°F23.1°C 81% 2.3 mph NE3.7 kmh NE 4.6 mph7.4 kmh 29.97 in1014.9 mb - 0.00 in0.0 mm 0.00 in0.0 mm
06:25 AM 79.9°F26.6°C 73.9°F23.3°C 82% Calm Calm 2.3 mph3.7 kmh 29.97 in1014.9 mb - 0.00 in0.0 mm 0.00 in0.0 mm
06:20 AM 79.9°F26.6°C 73.9°F23.3°C 82% 1.2 mph NE1.9 kmh NE 2.3 mph3.7 kmh 29.96 in1014.6 mb - 0.00 in0.0 mm 0.00 in0.0 mm
06:15 AM 79.7°F26.5°C 73.7°F23.2°C 82% 1.2 mph NE1.9 kmh NE 4.6 mph7.4 kmh 29.96 in1014.6 mb - 0.00 in0.0 mm 0.00 in0.0 mm
06:10 AM 79.9°F26.6°C 73.9°F23.3°C 82% Calm Calm 2.3 mph3.7 kmh 29.96 in1014.6 mb - 0.00 in0.0 mm 0.00 in0.0 mm
06:00 AM 79.9°F26.6°C 73.9°F23.3°C 82% Calm Calm 2.3 mph3.7 kmh 29.95 in1014.2 mb - 0.00 in0.0 mm 0.00 in0.0 mm
05:55 AM 79.9°F26.6°C 73.9°F23.3°C 82% 2.3 mph NE3.7 kmh NE 4.6 mph7.4 kmh 29.95 in1014.2 mb - 0.00 in0.0 mm 0.00 in0.0 mm
05:50 AM 79.7°F26.5°C 73.7°F23.2°C 82% Calm Calm 2.3 mph3.7 kmh 29.95 in1014.2 mb - 0.00 in0.0 mm 0.00 in0.0 mm
05:45 AM 79.7°F26.5°C 73.7°F23.2°C 82% 1.2 mph NE1.9 kmh NE 4.6 mph7.4 kmh 29.95 in1014.2 mb - 0.00 in0.0 mm 0.00 in0.0 mm
05:40 AM 79.7°F26.5°C 73.7°F23.2°C 82% Calm Calm 2.3 mph3.7 kmh 29.95 in1014.2 mb - 0.00 in0.0 mm 0.00 in0.0 mm
05:35 AM 79.7°F26.5°C 73.3°F22.9°C 81% 1.2 mph NE1.9 kmh NE 2.3 mph3.7 kmh 29.94 in1013.9 mb - 0.00 in0.0 mm 0.00 in0.0 mm
05:30 AM 79.7°F26.5°C 73.7°F23.2°C 82% Calm Calm 2.3 mph3.7 kmh 29.94 in1013.9 mb - 0.00 in0.0 mm 0.00 in0.0 mm
05:25 AM 79.7°F26.5°C 73.7°F23.2°C 82% Calm Calm 4.6 mph7.4 kmh 29.94 in1013.9 mb - 0.00 in0.0 mm 0.00 in0.0 mm
05:20 AM 79.5°F26.4°C 73.5°F23.1°C 82% 1.2 mph NE1.9 kmh NE 2.3 mph3.7 kmh 29.94 in1013.9 mb - 0.00 in0.0 mm 0.00 in0.0 mm
05:15 AM 79.5°F26.4°C 73.6°F23.1°C 82% 2.3 mph NE3.7 kmh NE 4.6 mph7.4 kmh 29.94 in1013.9 mb - 0.00 in0.0 mm 0.00 in0.0 mm
05:10 AM 80.1°F26.7°C 74.1°F23.4°C 82% 2.3 mph NE3.7 kmh NE 4.6 mph7.4 kmh 29.94 in1013.9 mb - 0.00 in0.0 mm 0.00 in0.0 mm
05:00 AM 80.1°F26.7°C 74.1°F23.4°C 82% 1.2 mph NE1.9 kmh NE 2.3 mph3.7 kmh 29.94 in1013.9 mb - 0.00 in0.0 mm 0.00 in0.0 mm
04:55 AM 80.1°F26.7°C 74.1°F23.4°C 82% 1.2 mph NE1.9 kmh NE 2.3 mph3.7 kmh 29.94 in1013.9 mb - 0.00 in0.0 mm 0.00 in0.0 mm
04:50 AM 80.1°F26.7°C 74.1°F23.4°C 82% 1.2 mph NE1.9 kmh NE 4.6 mph7.4 kmh 29.94 in1013.9 mb - 0.00 in0.0 mm 0.00 in0.0 mm
04:45 AM 80.1°F26.7°C 74.1°F23.4°C 82% Calm Calm 2.3 mph3.7 kmh 29.94 in1013.9 mb - 0.00 in0.0 mm 0.00 in0.0 mm
04:40 AM 80.1°F26.7°C 74.1°F23.4°C 82% 1.2 mph NE1.9 kmh NE 4.6 mph7.4 kmh 29.93 in1013.5 mb - 0.00 in0.0 mm 0.00 in0.0 mm
04:35 AM 80.1°F26.7°C 74.1°F23.4°C 82% 1.2 mph NE1.9 kmh NE 6.9 mph11.1 kmh 29.93 in1013.5 mb - 0.00 in0.0 mm 0.00 in0.0 mm
04:30 AM 80.1°F26.7°C 74.1°F23.4°C 82% Calm Calm 2.3 mph3.7 kmh 29.93 in1013.5 mb - 0.00 in0.0 mm 0.00 in0.0 mm
04:25 AM 80.1°F26.7°C 74.1°F23.4°C 82% 1.2 mph NE1.9 kmh NE 2.3 mph3.7 kmh 29.93 in1013.5 mb - 0.00 in0.0 mm 0.00 in0.0 mm
04:20 AM 80.2°F26.8°C 74.2°F23.4°C 82% Calm Calm 2.3 mph3.7 kmh 29.94 in1013.9 mb - 0.00 in0.0 mm 0.00 in0.0 mm
04:15 AM 80.2°F26.8°C 74.2°F23.4°C 82% 1.2 mph NE1.9 kmh NE 2.3 mph3.7 kmh 29.94 in1013.9 mb - 0.00 in0.0 mm 0.00 in0.0 mm
04:10 AM 80.4°F26.9°C 74.4°F23.6°C 82% 1.2 mph NE1.9 kmh NE 4.6 mph7.4 kmh 29.94 in1013.9 mb - 0.00 in0.0 mm 0.00 in0.0 mm
04:00 AM 80.4°F26.9°C 74.8°F23.8°C 83% 3.5 mph NE5.6 kmh NE 6.9 mph11.1 kmh 29.93 in1013.5 mb - 0.00 in0.0 mm 0.00 in0.0 mm
03:55 AM 80.4°F26.9°C 74.1°F23.4°C 81% 2.3 mph NE3.7 kmh NE 4.6 mph7.4 kmh 29.93 in1013.5 mb - 0.00 in0.0 mm 0.00 in0.0 mm
03:50 AM 80.2°F26.8°C 74.2°F23.4°C 82% 2.3 mph NE3.7 kmh NE 6.9 mph11.1 kmh 29.93 in1013.5 mb - 0.00 in0.0 mm 0.00 in0.0 mm
03:45 AM 80.2°F26.8°C 74.2°F23.4°C 82% 1.2 mph NE1.9 kmh NE 4.6 mph7.4 kmh 29.93 in1013.5 mb - 0.00 in0.0 mm 0.00 in0.0 mm
03:40 AM 80.2°F26.8°C 74.6°F23.7°C 83% 1.2 mph NE1.9 kmh NE 4.6 mph7.4 kmh 29.93 in1013.5 mb - 0.00 in0.0 mm 0.00 in0.0 mm
03:35 AM 80.2°F26.8°C 74.2°F23.4°C 82% Calm Calm 2.3 mph3.7 kmh 29.93 in1013.5 mb - 0.00 in0.0 mm 0.00 in0.0 mm
03:30 AM 80.2°F26.8°C 73.9°F23.3°C 81% Calm Calm 2.3 mph3.7 kmh 29.93 in1013.5 mb - 0.00 in0.0 mm 0.00 in0.0 mm
03:25 AM 80.2°F26.8°C 74.2°F23.4°C 82% 1.2 mph NE1.9 kmh NE 4.6 mph7.4 kmh 29.93 in1013.5 mb - 0.00 in0.0 mm 0.00 in0.0 mm
03:20 AM 80.1°F26.7°C 74.8°F23.8°C 84% Calm Calm 2.3 mph3.7 kmh 29.93 in1013.5 mb - 0.00 in0.0 mm 0.00 in0.0 mm
03:15 AM 80.1°F26.7°C 74.8°F23.8°C 84% 1.2 mph NE1.9 kmh NE 4.6 mph7.4 kmh 29.93 in1013.5 mb - 0.00 in0.0 mm 0.00 in0.0 mm
03:10 AM 80.1°F26.7°C 74.8°F23.8°C 84% 1.2 mph NE1.9 kmh NE 2.3 mph3.7 kmh 29.93 in1013.5 mb - 0.00 in0.0 mm 0.00 in0.0 mm
03:00 AM 80.1°F26.7°C 75.1°F23.9°C 85% 1.2 mph NE1.9 kmh NE 4.6 mph7.4 kmh 29.93 in1013.5 mb - 0.00 in0.0 mm 0.00 in0.0 mm
02:55 AM 80.1°F26.7°C 75.1°F23.9°C 85% 2.3 mph NE3.7 kmh NE 4.6 mph7.4 kmh 29.93 in1013.5 mb - 0.00 in0.0 mm 0.00 in0.0 mm
02:50 AM 80.1°F26.7°C 75.1°F23.9°C 85% 1.2 mph NE1.9 kmh NE 4.6 mph7.4 kmh 29.93 in1013.5 mb - 0.00 in0.0 mm 0.00 in0.0 mm
02:45 AM 79.9°F26.6°C 75.0°F23.9°C 85% 1.2 mph NE1.9 kmh NE 2.3 mph3.7 kmh 29.93 in1013.5 mb - 0.00 in0.0 mm 0.00 in0.0 mm
02:40 AM 79.9°F26.6°C 75.0°F23.9°C 85% 2.3 mph NE3.7 kmh NE 4.6 mph7.4 kmh 29.92 in1013.2 mb - 0.00 in0.0 mm 0.00 in0.0 mm
02:35 AM 79.7°F26.5°C 74.8°F23.8°C 85% 1.2 mph NE1.9 kmh NE 4.6 mph7.4 kmh 29.93 in1013.5 mb - 0.00 in0.0 mm 0.00 in0.0 mm
02:30 AM 79.7°F26.5°C 74.8°F23.8°C 85% 1.2 mph NE1.9 kmh NE 2.3 mph3.7 kmh 29.93 in1013.5 mb - 0.00 in0.0 mm 0.00 in0.0 mm
02:25 AM 79.5°F26.4°C 74.6°F23.7°C 85% 1.2 mph NE1.9 kmh NE 2.3 mph3.7 kmh 29.93 in1013.5 mb - 0.00 in0.0 mm 0.00 in0.0 mm
02:20 AM 79.3°F26.3°C 74.8°F23.8°C 86% 1.2 mph NE1.9 kmh NE 4.6 mph7.4 kmh 29.93 in1013.5 mb - 0.00 in0.0 mm 0.00 in0.0 mm
02:15 AM 79.3°F26.3°C 74.8°F23.8°C 86% 1.2 mph NE1.9 kmh NE 2.3 mph3.7 kmh 29.93 in1013.5 mb - 0.00 in0.0 mm 0.00 in0.0 mm
02:10 AM 79.3°F26.3°C 75.1°F23.9°C 87% 1.2 mph NE1.9 kmh NE 2.3 mph3.7 kmh 29.93 in1013.5 mb - 0.00 in0.0 mm 0.00 in0.0 mm
02:00 AM 79.3°F26.3°C 75.1°F23.9°C 87% Calm Calm 2.3 mph3.7 kmh 29.94 in1013.9 mb - 0.00 in0.0 mm 0.00 in0.0 mm
01:55 AM 79.5°F26.4°C 75.3°F24.1°C 87% 1.2 mph NE1.9 kmh NE 2.3 mph3.7 kmh 29.94 in1013.9 mb - 0.00 in0.0 mm 0.00 in0.0 mm
01:50 AM 79.5°F26.4°C 75.0°F23.9°C 86% 1.2 mph NE1.9 kmh NE 2.3 mph3.7 kmh 29.94 in1013.9 mb - 0.00 in0.0 mm 0.00 in0.0 mm
01:45 AM 79.5°F26.4°C 74.6°F23.7°C 85% 2.3 mph NE3.7 kmh NE 4.6 mph7.4 kmh 29.94 in1013.9 mb - 0.00 in0.0 mm 0.00 in0.0 mm
01:40 AM 79.5°F26.4°C 74.3°F23.5°C 84% Calm Calm 2.3 mph3.7 kmh 29.94 in1013.9 mb - 0.00 in0.0 mm 0.00 in0.0 mm
01:35 AM 79.6°F26.4°C 74.4°F23.6°C 84% Calm Calm -- 29.94 in1013.9 mb - 0.00 in0.0 mm 0.00 in0.0 mm
01:30 AM 79.7°F26.5°C 74.4°F23.6°C 84% Calm Calm 2.3 mph3.7 kmh 29.95 in1014.2 mb - 0.00 in0.0 mm 0.00 in0.0 mm
01:25 AM 79.7°F26.5°C 74.1°F23.4°C 83% 1.2 mph NE1.9 kmh NE 2.3 mph3.7 kmh 29.95 in1014.2 mb - 0.00 in0.0 mm 0.00 in0.0 mm
01:20 AM 79.9°F26.6°C 74.6°F23.7°C 84% 2.3 mph NE3.7 kmh NE 2.3 mph3.7 kmh 29.95 in1014.2 mb - 0.00 in0.0 mm 0.00 in0.0 mm
01:15 AM 79.9°F26.6°C 74.3°F23.5°C 83% Calm Calm -- 29.95 in1014.2 mb - 0.00 in0.0 mm 0.00 in0.0 mm
01:10 AM 79.9°F26.6°C 74.3°F23.5°C 83% 1.2 mph NE1.9 kmh NE 4.6 mph7.4 kmh 29.95 in1014.2 mb - 0.00 in0.0 mm 0.00 in0.0 mm
01:00 AM 79.9°F26.6°C 74.3°F23.5°C 83% Calm Calm 2.3 mph3.7 kmh 29.95 in1014.2 mb - 0.00 in0.0 mm 0.00 in0.0 mm
12:55 AM 80.1°F26.7°C 74.4°F23.6°C 83% Calm Calm 2.3 mph3.7 kmh 29.96 in1014.6 mb - 0.00 in0.0 mm 0.00 in0.0 mm
12:50 AM 80.1°F26.7°C 74.4°F23.6°C 83% 1.2 mph NE1.9 kmh NE 2.3 mph3.7 kmh 29.96 in1014.6 mb - 0.00 in0.0 mm 0.00 in0.0 mm
12:45 AM 80.1°F26.7°C 74.4°F23.6°C 83% Calm Calm 2.3 mph3.7 kmh 29.96 in1014.6 mb - 0.00 in0.0 mm 0.00 in0.0 mm
12:40 AM 80.2°F26.8°C 74.6°F23.7°C 83% 1.2 mph NE1.9 kmh NE 2.3 mph3.7 kmh 29.96 in1014.6 mb - 0.00 in0.0 mm 0.00 in0.0 mm
12:35 AM 80.4°F26.9°C 74.7°F23.7°C 83% Calm Calm 2.3 mph3.7 kmh 29.97 in1014.9 mb - 0.00 in0.0 mm 0.00 in0.0 mm
12:30 AM 80.4°F26.9°C 74.8°F23.8°C 83% Calm Calm 2.3 mph3.7 kmh 29.97 in1014.9 mb - 0.00 in0.0 mm 0.00 in0.0 mm
12:25 AM 80.6°F27.0°C 75.0°F23.9°C 83% Calm Calm 2.3 mph3.7 kmh 29.98 in1015.2 mb - 0.00 in0.0 mm 0.00 in0.0 mm
12:20 AM 80.6°F27.0°C 74.2°F23.4°C 81% 1.2 mph NE1.9 kmh NE 4.6 mph7.4 kmh 29.98 in1015.2 mb - 0.00 in0.0 mm 0.00 in0.0 mm
12:15 AM 80.6°F27.0°C 74.6°F23.7°C 82% 1.2 mph NE1.9 kmh NE 6.9 mph11.1 kmh 29.98 in1015.2 mb - 0.00 in0.0 mm 0.00 in0.0 mm
12:10 AM 80.6°F27.0°C 74.2°F23.4°C 81% 1.2 mph NE1.9 kmh NE 4.6 mph7.4 kmh 29.98 in1015.2 mb - 0.00 in0.0 mm 0.00 in0.0 mm
12:00 AM 80.6°F27.0°C 74.2°F23.4°C 81% Calm Calm 2.3 mph3.7 kmh 29.98 in1015.2 mb - 0.00 in0.0 mm 0.00 in0.0 mm